Time;durP1;ratioP1;P1;durP2;ratioP2;P2;SDS_P1;SDS_P2;PMS_P1;PMS_P2;Temp;Humidity;BMP_temperature;BMP_pressure;BME280_temperature;BME280_humidity;BME280_pressure;Samples;Min_cycle;Max_cycle;Signal;HPM_P1;HPM_P2
2023/06/08 00:02:04;;;;;;;5.55;4.63;;;;;;;;;;5003524;28;20470;-67
2023/06/08 00:04:32;;;;;;;141.75;16.40;;;;;;;;;;5002752;28;20046;-69
2023/06/08 00:06:59;;;;;;;5.53;4.40;;;;;;;;;;4995306;28;20038;-69
2023/06/08 00:09:24;;;;;;;6.45;5.00;;;;;;;;;;4980232;28;20045;-69
2023/06/08 00:11:52;;;;;;;5.78;4.90;;;;;;;;;;4993296;28;20042;-67
2023/06/08 00:14:18;;;;;;;8.32;4.00;;;;;;;;;;4994283;28;20426;-69
2023/06/08 00:16:43;;;;;;;9.52;4.75;;;;;;;;;;4996355;28;20042;-69
2023/06/08 00:19:10;;;;;;;6.32;4.70;;;;;;;;;;4995115;28;20557;-67
2023/06/08 00:21:37;;;;;;;5.35;4.35;;;;;;;;;;5010387;28;20052;-69
2023/06/08 00:24:02;;;;;;;5.70;4.40;;;;;;;;;;4984560;28;20418;-69
2023/06/08 00:26:27;;;;;;;6.65;4.68;;;;;;;;;;4994866;28;20037;-69
2023/06/08 00:28:53;;;;;;;5.15;4.65;;;;;;;;;;4988999;28;20044;-68
2023/06/08 00:31:19;;;;;;;5.45;4.47;;;;;;;;;;4994880;28;20041;-68
2023/06/08 00:33:45;;;;;;;5.18;4.18;;;;;;;;;;4993595;28;20049;-68
2023/06/08 00:36:12;;;;;;;5.30;4.80;;;;;;;;;;4995624;28;20042;-68
2023/06/08 00:38:38;;;;;;;5.70;4.55;;;;;;;;;;4985316;28;20120;-68
2023/06/08 00:41:03;;;;;;;5.10;4.53;;;;;;;;;;4994830;28;20058;-68
2023/06/08 00:43:29;;;;;;;5.28;4.78;;;;;;;;;;4993541;28;20053;-68
2023/06/08 00:45:56;;;;;;;4.95;4.25;;;;;;;;;;4995008;28;20045;-69
2023/06/08 00:48:23;;;;;;;8.60;4.25;;;;;;;;;;4996537;28;20049;-69
2023/06/08 00:50:50;;;;;;;5.03;4.50;;;;;;;;;;4984968;28;20030;-68
2023/06/08 00:53:16;;;;;;;5.72;4.28;;;;;;;;;;5027420;28;20040;-68
2023/06/08 00:55:43;;;;;;;8.27;4.85;;;;;;;;;;5026749;28;20527;-68
2023/06/08 00:58:13;;;;;;;6.43;4.20;;;;;;;;;;5004508;28;20542;-68
2023/06/08 01:00:40;;;;;;;5.32;4.60;;;;;;;;;;5004790;28;20065;-68
2023/06/08 01:03:06;;;;;;;6.57;4.40;;;;;;;;;;5012932;28;20061;-68
2023/06/08 01:05:32;;;;;;;5.80;4.15;;;;;;;;;;4984081;28;20442;-68
2023/06/08 01:08:04;;;;;;;5.13;4.22;;;;;;;;;;4992254;28;20080;-68
2023/06/08 01:10:57;;;;;;;5.70;4.13;;;;;;;;;;4994971;28;20517;-69
2023/06/08 01:14:13;;;;;;;7.85;4.70;;;;;;;;;;4994263;28;20034;-69
2023/06/08 01:16:44;;;;;;;5.47;4.50;;;;;;;;;;4983451;28;20177;-70
2023/06/08 01:19:17;;;;;;;6.80;4.75;;;;;;;;;;5022821;28;20525;-68
2023/06/08 01:21:57;;;;;;;6.55;4.78;;;;;;;;;;5014827;28;20442;-68
2023/06/08 01:24:24;;;;;;;5.80;4.60;;;;;;;;;;5013726;28;20873;-68
2023/06/08 01:26:50;;;;;;;5.57;5.00;;;;;;;;;;4997811;28;20124;-69
2023/06/08 01:29:21;;;;;;;6.10;4.50;;;;;;;;;;4986109;28;20109;-69
2023/06/08 01:31:47;;;;;;;5.75;4.40;;;;;;;;;;5013693;28;20047;-68
2023/06/08 01:34:13;;;;;;;5.18;4.18;;;;;;;;;;5013845;28;20480;-68
2023/06/08 01:37:02;;;;;;;5.38;4.47;;;;;;;;;;5002140;28;20046;-68
2023/06/08 01:39:39;;;;;;;6.30;4.65;;;;;;;;;;4966746;28;20034;-68
2023/06/08 01:42:07;;;;;;;5.05;3.90;;;;;;;;;;4994879;28;20037;-69
2023/06/08 01:44:37;;;;;;;6.68;4.70;;;;;;;;;;4997972;28;20057;-68
2023/06/08 01:47:05;;;;;;;6.68;4.07;;;;;;;;;;5009354;28;20030;-69
2023/06/08 01:49:33;;;;;;;6.20;4.43;;;;;;;;;;5000222;28;20076;-67
2023/06/08 01:51:58;;;;;;;4.07;3.55;;;;;;;;;;4989067;28;20046;-68
2023/06/08 01:54:24;;;;;;;5.60;4.60;;;;;;;;;;5000594;28;20045;-68
2023/06/08 01:56:49;;;;;;;4.80;4.00;;;;;;;;;;5010533;28;20042;-68
2023/06/08 01:59:15;;;;;;;5.15;4.45;;;;;;;;;;4981678;28;20121;-68
2023/06/08 02:01:40;;;;;;;6.03;3.90;;;;;;;;;;5009460;28;20042;-68
2023/06/08 02:04:05;;;;;;;5.35;3.72;;;;;;;;;;5015940;28;20034;-68
2023/06/08 02:06:31;;;;;;;6.22;4.32;;;;;;;;;;4987763;28;20040;-69
2023/06/08 02:08:57;;;;;;;5.55;4.10;;;;;;;;;;4996023;28;20695;-68
2023/06/08 02:11:22;;;;;;;4.70;4.10;;;;;;;;;;4996571;28;20125;-68
2023/06/08 02:13:48;;;;;;;5.13;4.38;;;;;;;;;;4996322;28;20033;-69
2023/06/08 02:16:14;;;;;;;5.97;3.85;;;;;;;;;;5010231;28;20538;-69
2023/06/08 02:18:41;;;;;;;5.57;4.60;;;;;;;;;;5000758;28;20053;-69
2023/06/08 02:21:07;;;;;;;4.80;4.30;;;;;;;;;;4987227;28;20034;-69
2023/06/08 02:23:33;;;;;;;5.10;4.40;;;;;;;;;;4995164;28;20048;-69
2023/06/08 02:25:58;;;;;;;5.07;4.20;;;;;;;;;;5004676;28;20034;-69
2023/06/08 02:28:24;;;;;;;6.28;4.20;;;;;;;;;;5005471;28;20682;-68
2023/06/08 02:30:50;;;;;;;4.50;4.10;;;;;;;;;;4996761;28;20034;-68
2023/06/08 02:33:15;;;;;;;6.00;3.85;;;;;;;;;;4995753;28;20127;-69
2023/06/08 02:35:41;;;;;;;7.40;4.20;;;;;;;;;;4987389;28;20046;-67
2023/06/08 02:38:06;;;;;;;9.13;4.18;;;;;;;;;;4997015;28;20034;-67
2023/06/08 02:40:32;;;;;;;4.85;4.28;;;;;;;;;;4997303;28;20444;-68
2023/06/08 02:42:58;;;;;;;5.40;4.63;;;;;;;;;;4995458;28;20945;-67
2023/06/08 02:45:23;;;;;;;6.85;5.38;;;;;;;;;;5011113;28;20132;-69
2023/06/08 02:47:49;;;;;;;5.07;4.22;;;;;;;;;;4991732;28;20188;-68
2023/06/08 02:50:14;;;;;;;5.60;4.50;;;;;;;;;;5023741;28;20573;-68
2023/06/08 02:52:40;;;;;;;5.30;4.28;;;;;;;;;;4996566;28;20121;-67
2023/06/08 02:55:06;;;;;;;4.82;4.32;;;;;;;;;;5002615;28;20450;-67
2023/06/08 02:57:32;;;;;;;4.72;4.20;;;;;;;;;;4996612;28;20037;-67
2023/06/08 02:59:58;;;;;;;6.80;4.78;;;;;;;;;;4996839;28;20038;-67
2023/06/08 03:02:24;;;;;;;5.38;4.50;;;;;;;;;;4986065;28;20042;-67
2023/06/08 03:04:52;;;;;;;7.68;4.82;;;;;;;;;;4989791;28;20427;-67
2023/06/08 03:07:17;;;;;;;7.60;4.55;;;;;;;;;;4995716;28;20525;-67
2023/06/08 03:09:43;;;;;;;5.43;4.35;;;;;;;;;;4995837;28;20113;-67
2023/06/08 03:12:10;;;;;;;5.70;4.40;;;;;;;;;;4995993;28;20128;-67
2023/06/08 03:14:36;;;;;;;5.13;4.53;;;;;;;;;;4995971;28;20046;-67
2023/06/08 03:17:03;;;;;;;4.70;3.95;;;;;;;;;;5000624;28;20033;-67
2023/06/08 03:19:32;;;;;;;7.05;4.57;;;;;;;;;;4995380;28;20058;-68
2023/06/08 03:22:00;;;;;;;7.57;4.78;;;;;;;;;;5002464;28;20112;-67
2023/06/08 03:24:28;;;;;;;5.32;4.82;;;;;;;;;;5003508;28;20041;-67
2023/06/08 03:26:55;;;;;;;4.75;4.30;;;;;;;;;;4994524;28;20037;-67
2023/06/08 03:29:21;;;;;;;5.53;4.38;;;;;;;;;;4985208;28;20044;-67
2023/06/08 03:31:47;;;;;;;6.68;4.70;;;;;;;;;;4995730;28;20038;-67
2023/06/08 03:34:12;;;;;;;5.18;4.60;;;;;;;;;;4994981;28;20037;-67
2023/06/08 03:36:38;;;;;;;6.47;4.32;;;;;;;;;;4996257;28;20072;-67
2023/06/08 03:39:04;;;;;;;5.18;4.50;;;;;;;;;;4993109;28;20398;-67
2023/06/08 03:41:30;;;;;;;5.90;5.30;;;;;;;;;;4995223;28;20038;-66
2023/06/08 03:43:55;;;;;;;6.07;5.47;;;;;;;;;;4984412;28;20045;-66
2023/06/08 03:46:21;;;;;;;6.38;5.70;;;;;;;;;;5014345;28;20049;-67
2023/06/08 03:48:47;;;;;;;6.55;5.70;;;;;;;;;;5007891;28;20049;-67
2023/06/08 03:51:13;;;;;;;6.57;5.82;;;;;;;;;;4994895;28;20080;-66
2023/06/08 03:53:38;;;;;;;6.82;6.13;;;;;;;;;;4994522;28;20042;-67
2023/06/08 03:56:04;;;;;;;6.43;5.70;;;;;;;;;;4995913;28;20522;-66
2023/06/08 03:58:29;;;;;;;5.65;5.13;;;;;;;;;;4985874;28;20123;-67
2023/06/08 04:00:56;;;;;;;7.18;5.72;;;;;;;;;;4995251;28;20506;-67
2023/06/08 04:03:24;;;;;;;7.97;6.32;;;;;;;;;;4993614;28;20450;-67
2023/06/08 04:05:50;;;;;;;6.78;6.00;;;;;;;;;;4995115;28;20041;-66
2023/06/08 04:08:17;;;;;;;6.30;5.70;;;;;;;;;;4995317;28;20569;-67
2023/06/08 04:10:43;;;;;;;6.72;5.72;;;;;;;;;;4994194;28;20041;-67
2023/06/08 04:13:08;;;;;;;6.43;5.82;;;;;;;;;;4985301;28;20054;-66
2023/06/08 04:15:33;;;;;;;7.75;5.90;;;;;;;;;;5013814;28;20057;-67
2023/06/08 04:18:01;;;;;;;6.72;6.03;;;;;;;;;;5014317;28;20080;-67
2023/06/08 04:20:27;;;;;;;6.38;5.78;;;;;;;;;;4997861;28;20029;-67
2023/06/08 04:22:52;;;;;;;8.68;6.65;;;;;;;;;;4992827;28;20041;-67
2023/06/08 04:25:19;;;;;;;8.00;7.20;;;;;;;;;;4984497;28;20030;-67
2023/06/08 04:27:45;;;;;;;7.18;6.45;;;;;;;;;;4995033;28;20041;-67
2023/06/08 04:30:11;;;;;;;6.85;5.93;;;;;;;;;;4994794;28;20045;-67
2023/06/08 04:32:36;;;;;;;6.95;6.20;;;;;;;;;;4994117;28;20077;-67
2023/06/08 04:35:03;;;;;;;7.90;6.85;;;;;;;;;;4992491;28;20450;-67
2023/06/08 04:37:28;;;;;;;8.43;5.78;;;;;;;;;;4994364;28;20034;-67
2023/06/08 04:39:56;;;;;;;8.20;6.35;;;;;;;;;;4984346;28;20100;-67
2023/06/08 04:42:23;;;;;;;7.68;6.20;;;;;;;;;;4991217;28;20072;-67
2023/06/08 04:44:50;;;;;;;5.95;5.35;;;;;;;;;;4994287;28;20077;-67
2023/06/08 04:47:16;;;;;;;6.45;5.85;;;;;;;;;;4993598;28;20034;-67
2023/06/08 04:49:42;;;;;;;7.68;5.88;;;;;;;;;;5007963;28;20477;-67
2023/06/08 04:52:09;;;;;;;9.15;6.70;;;;;;;;;;5012865;28;20026;-67
2023/06/08 04:54:36;;;;;;;9.90;7.22;;;;;;;;;;4984527;28;20055;-67
2023/06/08 04:57:03;;;;;;;8.07;6.30;;;;;;;;;;4992738;28;20066;-67
2023/06/08 04:59:29;;;;;;;7.03;6.32;;;;;;;;;;4994463;28;20046;-67
2023/06/08 05:01:54;;;;;;;6.75;5.65;;;;;;;;;;4990066;28;20045;-68
2023/06/08 05:04:20;;;;;;;7.75;6.38;;;;;;;;;;4991806;28;20030;-67
2023/06/08 05:06:46;;;;;;;6.53;5.93;;;;;;;;;;4982315;28;20049;-67
2023/06/08 05:09:12;;;;;;;7.47;6.68;;;;;;;;;;4987253;28;20506;-67
2023/06/08 05:11:38;;;;;;;7.50;6.38;;;;;;;;;;4991141;28;20092;-67
2023/06/08 05:14:03;;;;;;;7.13;6.43;;;;;;;;;;4992271;28;20046;-66
2023/06/08 05:16:28;;;;;;;7.47;6.70;;;;;;;;;;4980078;28;20042;-66
2023/06/08 05:18:54;;;;;;;8.23;7.03;;;;;;;;;;4995171;28;20050;-66
2023/06/08 05:21:19;;;;;;;7.70;6.90;;;;;;;;;;4985608;28;20125;-67
2023/06/08 05:23:45;;;;;;;7.45;6.75;;;;;;;;;;4995239;28;20064;-67
2023/06/08 05:26:10;;;;;;;8.35;6.88;;;;;;;;;;4994822;28;20070;-67
2023/06/08 05:28:36;;;;;;;9.20;8.30;;;;;;;;;;4996746;28;20042;-67
2023/06/08 05:31:02;;;;;;;8.82;7.43;;;;;;;;;;4996444;28;20569;-67
2023/06/08 05:33:27;;;;;;;8.57;7.72;;;;;;;;;;4997442;28;20133;-67
2023/06/08 05:35:53;;;;;;;9.32;7.22;;;;;;;;;;5005193;28;20041;-68
2023/06/08 05:38:19;;;;;;;8.07;7.25;;;;;;;;;;5016470;28;20158;-67
2023/06/08 05:40:45;;;;;;;9.80;8.20;;;;;;;;;;5015781;28;20037;-67
2023/06/08 05:43:10;;;;;;;8.25;7.43;;;;;;;;;;5005472;28;20045;-67
2023/06/08 05:45:36;;;;;;;8.90;8.00;;;;;;;;;;4997096;28;20038;-67
2023/06/08 05:48:01;;;;;;;7.65;6.88;;;;;;;;;;4997095;28;20050;-67
2023/06/08 05:50:26;;;;;;;7.85;7.03;;;;;;;;;;4987961;28;20037;-67
2023/06/08 05:52:52;;;;;;;10.55;6.88;;;;;;;;;;4995882;28;20411;-67
2023/06/08 05:55:17;;;;;;;8.02;6.63;;;;;;;;;;4998033;28;20067;-67
2023/06/08 05:57:43;;;;;;;7.65;6.82;;;;;;;;;;4997414;28;20037;-67
2023/06/08 06:00:12;;;;;;;11.32;6.80;;;;;;;;;;4997259;28;20049;-67
2023/06/08 06:02:38;;;;;;;7.28;6.57;;;;;;;;;;4995689;28;20042;-67
2023/06/08 06:05:04;;;;;;;7.22;6.35;;;;;;;;;;4987250;28;20034;-67
2023/06/08 06:07:30;;;;;;;9.90;6.60;;;;;;;;;;5001352;28;20057;-67
2023/06/08 06:09:55;;;;;;;6.75;5.97;;;;;;;;;;5008110;28;20049;-67
2023/06/08 06:12:21;;;;;;;7.20;6.50;;;;;;;;;;4996860;28;20073;-67
2023/06/08 06:14:46;;;;;;;7.18;5.97;;;;;;;;;;5009364;28;20048;-67
2023/06/08 06:17:15;;;;;;;10.45;6.80;;;;;;;;;;5014927;28;20095;-67
2023/06/08 06:19:41;;;;;;;11.15;8.35;;;;;;;;;;4996249;28;20919;-67
2023/06/08 06:22:08;;;;;;;8.50;7.20;;;;;;;;;;4995581;28;20042;-67
2023/06/08 06:24:34;;;;;;;8.18;6.38;;;;;;;;;;4995983;28;20041;-67
2023/06/08 06:27:00;;;;;;;7.10;6.40;;;;;;;;;;4997110;28;20572;-67
2023/06/08 06:29:26;;;;;;;6.30;5.68;;;;;;;;;;4996846;28;20061;-67
2023/06/08 06:31:51;;;;;;;8.50;6.47;;;;;;;;;;4987432;28;20045;-67
2023/06/08 06:34:17;;;;;;;7.32;6.63;;;;;;;;;;5011828;28;20137;-67
2023/06/08 06:36:42;;;;;;;6.90;6.25;;;;;;;;;;4996323;28;20107;-67
2023/06/08 06:39:07;;;;;;;7.05;5.88;;;;;;;;;;4996851;28;20603;-67
2023/06/08 06:41:33;;;;;;;8.57;6.63;;;;;;;;;;5009140;28;20080;-67
2023/06/08 06:43:58;;;;;;;7.25;6.55;;;;;;;;;;5000654;28;20042;-67
2023/06/08 06:46:25;;;;;;;6.63;6.03;;;;;;;;;;4986363;28;20613;-68
2023/06/08 06:48:50;;;;;;;6.57;5.97;;;;;;;;;;4980589;28;20438;-67
2023/06/08 06:51:16;;;;;;;8.18;6.05;;;;;;;;;;4980618;28;20041;-67
2023/06/08 06:53:41;;;;;;;6.60;5.88;;;;;;;;;;4996253;28;20049;-67
2023/06/08 06:56:06;;;;;;;7.90;6.43;;;;;;;;;;4996278;28;20034;-67
2023/06/08 06:58:32;;;;;;;7.40;6.68;;;;;;;;;;4979450;28;20042;-67
2023/06/08 07:00:58;;;;;;;9.00;6.90;;;;;;;;;;4985281;28;20095;-67
2023/06/08 07:03:26;;;;;;;6.88;6.28;;;;;;;;;;4999170;28;20060;-67
2023/06/08 07:05:59;;;;;;;10.48;6.35;;;;;;;;;;5008709;28;20042;-67
2023/06/08 07:08:27;;;;;;;8.80;6.55;;;;;;;;;;5007130;28;20051;-67
2023/06/08 07:10:53;;;;;;;7.70;6.90;;;;;;;;;;5014198;28;20041;-67
2023/06/08 07:13:18;;;;;;;7.72;7.03;;;;;;;;;;5003653;28;20084;-67
2023/06/08 07:15:44;;;;;;;7.53;6.32;;;;;;;;;;4996666;28;20038;-67
2023/06/08 07:18:09;;;;;;;7.47;6.68;;;;;;;;;;4996618;28;20436;-67
2023/06/08 07:20:35;;;;;;;8.82;6.82;;;;;;;;;;5004317;28;20521;-67
2023/06/08 07:23:00;;;;;;;7.00;6.32;;;;;;;;;;5014360;28;20042;-67
2023/06/08 07:25:26;;;;;;;8.38;6.70;;;;;;;;;;5001339;28;20409;-67
2023/06/08 07:27:51;;;;;;;7.78;6.10;;;;;;;;;;5003433;28;20037;-66
2023/06/08 07:30:16;;;;;;;8.32;6.55;;;;;;;;;;5014232;28;20522;-67
2023/06/08 07:32:43;;;;;;;7.22;6.53;;;;;;;;;;4992255;28;20042;-67
2023/06/08 07:35:09;;;;;;;7.50;6.80;;;;;;;;;;4996727;28;20607;-67
2023/06/08 07:37:34;;;;;;;7.35;6.20;;;;;;;;;;4995403;28;20042;-67
2023/06/08 07:40:00;;;;;;;10.82;6.85;;;;;;;;;;4995573;28;20038;-68
2023/06/08 07:42:25;;;;;;;7.28;6.50;;;;;;;;;;4984787;28;20030;-68
2023/06/08 07:44:50;;;;;;;6.25;5.65;;;;;;;;;;4995732;28;20046;-69
2023/06/08 07:47:17;;;;;;;8.25;6.50;;;;;;;;;;4979278;28;20088;-69
2023/06/08 07:49:42;;;;;;;6.63;5.93;;;;;;;;;;4995866;28;20061;-68
2023/06/08 07:52:08;;;;;;;6.47;5.88;;;;;;;;;;4995366;28;20054;-69
2023/06/08 07:54:33;;;;;;;6.72;6.00;;;;;;;;;;4995404;28;20050;-68
2023/06/08 07:56:58;;;;;;;9.05;6.35;;;;;;;;;;4969029;28;20045;-68
2023/06/08 07:59:24;;;;;;;6.35;5.75;;;;;;;;;;5014643;28;20068;-67
2023/06/08 08:01:49;;;;;;;6.55;5.50;;;;;;;;;;5007329;28;20045;-67
2023/06/08 08:04:15;;;;;;;5.57;4.93;;;;;;;;;;4994793;28;20030;-68
2023/06/08 08:06:40;;;;;;;6.38;5.57;;;;;;;;;;4995470;28;20494;-65
2023/06/08 08:09:06;;;;;;;7.57;5.88;;;;;;;;;;4995726;28;20069;-68
2023/06/08 08:11:32;;;;;;;6.75;5.30;;;;;;;;;;4985024;28;20042;-68
2023/06/08 08:13:58;;;;;;;5.35;4.85;;;;;;;;;;4993999;28;20069;-69
2023/06/08 08:16:23;;;;;;;6.07;5.43;;;;;;;;;;4994146;28;20676;-69
2023/06/08 08:18:49;;;;;;;6.30;5.40;;;;;;;;;;4994961;28;20041;-69
2023/06/08 08:21:14;;;;;;;5.50;4.70;;;;;;;;;;4995557;28;20030;-68
2023/06/08 08:23:39;;;;;;;5.57;4.72;;;;;;;;;;4993977;28;20080;-69
2023/06/08 08:26:05;;;;;;;5.25;4.75;;;;;;;;;;4984928;28;20035;-69
2023/06/08 08:28:31;;;;;;;5.68;4.93;;;;;;;;;;4999094;28;20430;-68
2023/06/08 08:30:57;;;;;;;5.70;4.93;;;;;;;;;;5014146;28;20106;-69
2023/06/08 08:33:24;;;;;;;6.22;5.63;;;;;;;;;;5013392;28;20056;-68
2023/06/08 08:35:50;;;;;;;6.30;5.70;;;;;;;;;;5014663;28;20411;-68
2023/06/08 08:38:15;;;;;;;5.78;5.18;;;;;;;;;;5002625;28;20037;-68
2023/06/08 08:40:41;;;;;;;6.18;5.45;;;;;;;;;;5013853;28;20040;-69
2023/06/08 08:43:12;;;;;;;7.20;6.28;;;;;;;;;;5013629;28;20053;-69
2023/06/08 08:45:41;;;;;;;7.47;6.78;;;;;;;;;;5004462;28;20046;-69
2023/06/08 08:48:08;;;;;;;8.20;7.40;;;;;;;;;;5004987;28;20068;-68
2023/06/08 08:50:36;;;;;;;7.65;6.20;;;;;;;;;;5018089;28;20524;-69
2023/06/08 08:53:02;;;;;;;8.00;7.20;;;;;;;;;;5007449;28;20041;-69
2023/06/08 08:55:28;;;;;;;9.13;8.23;;;;;;;;;;5012554;28;20135;-69
2023/06/08 08:57:59;;;;;;;8.40;7.53;;;;;;;;;;5018231;28;20056;-69
2023/06/08 09:00:25;;;;;;;8.98;6.85;;;;;;;;;;5004165;28;20044;-69
2023/06/08 09:02:51;;;;;;;6.95;6.20;;;;;;;;;;5011987;28;20037;-69
2023/06/08 09:05:17;;;;;;;8.13;6.65;;;;;;;;;;5006854;28;20041;-69
2023/06/08 09:07:42;;;;;;;8.85;6.20;;;;;;;;;;5017519;28;20551;-68
2023/06/08 09:10:19;;;;;;;7.95;6.78;;;;;;;;;;5004366;28;20076;-69
2023/06/08 09:12:47;;;;;;;7.93;6.40;;;;;;;;;;5034293;28;20102;-68
2023/06/08 09:15:16;;;;;;;8.68;7.85;;;;;;;;;;5021786;28;20816;-68
2023/06/08 09:17:43;;;;;;;7.07;6.20;;;;;;;;;;5006708;28;20041;-68
2023/06/08 09:20:09;;;;;;;8.43;6.07;;;;;;;;;;4996656;28;20046;-68
2023/06/08 09:22:36;;;;;;;6.78;5.90;;;;;;;;;;4995837;28;20052;-68
2023/06/08 09:25:03;;;;;;;7.32;6.60;;;;;;;;;;4996370;28;20033;-68
2023/06/08 09:27:30;;;;;;;11.48;6.75;;;;;;;;;;4996858;28;20033;-68
2023/06/08 09:29:57;;;;;;;7.30;5.45;;;;;;;;;;4995227;28;20049;-68
2023/06/08 09:32:31;;;;;;;6.80;4.63;;;;;;;;;;4995270;28;20037;-68
2023/06/08 09:35:01;;;;;;;6.93;6.28;;;;;;;;;;4993088;28;20050;-68
2023/06/08 09:37:32;;;;;;;7.07;6.38;;;;;;;;;;5025142;28;20080;-68
2023/06/08 09:40:00;;;;;;;7.55;6.57;;;;;;;;;;5016417;28;21540;-67
2023/06/08 09:42:42;;;;;;;7.50;6.65;;;;;;;;;;5010004;28;20045;-68
2023/06/08 09:45:11;;;;;;;4.35;3.75;;;;;;;;;;4998212;28;20037;-68
2023/06/08 09:47:36;;;;;;;8.82;7.93;;;;;;;;;;4997083;28;20657;-68
2023/06/08 09:50:02;;;;;;;9.13;7.38;;;;;;;;;;4996598;28;20048;-68
2023/06/08 09:52:31;;;;;;;7.88;6.72;;;;;;;;;;4996037;28;20065;-67
2023/06/08 09:54:57;;;;;;;7.65;6.95;;;;;;;;;;5009655;28;20042;-68
2023/06/08 09:57:23;;;;;;;6.53;5.82;;;;;;;;;;5015428;28;20095;-68
2023/06/08 10:02:42;;;;;;;9.60;7.97;;;;;;;;;;5010339;28;20047;-68
2023/06/08 10:05:10;;;;;;;6.25;5.60;;;;;;;;;;5015497;28;20040;-68
2023/06/08 10:07:37;;;;;;;6.65;5.95;;;;;;;;;;5001434;28;20045;-68
2023/06/08 10:10:12;;;;;;;6.80;5.90;;;;;;;;;;4985930;28;20080;-68
2023/06/08 10:12:38;;;;;;;12.00;6.47;;;;;;;;;;4947359;28;1178940;-68
2023/06/08 10:15:05;;;;;;;6.80;6.13;;;;;;;;;;4996599;28;20550;-68
2023/06/08 10:17:33;;;;;;;7.25;6.35;;;;;;;;;;4996885;28;20042;-68
2023/06/08 10:19:58;;;;;;;7.88;5.57;;;;;;;;;;4996926;28;20134;-68
2023/06/08 10:22:25;;;;;;;8.00;5.18;;;;;;;;;;4986898;28;20550;-68
2023/06/08 10:24:51;;;;;;;8.13;5.00;;;;;;;;;;4997269;28;20406;-68
2023/06/08 10:27:30;;;;;;;6.40;5.28;;;;;;;;;;4996755;28;20038;-68
2023/06/08 10:30:03;;;;;;;6.85;5.97;;;;;;;;;;4996637;28;20136;-68
2023/06/08 10:32:42;;;;;;;5.95;5.25;;;;;;;;;;4996641;28;20092;-68
2023/06/08 10:35:10;;;;;;;5.97;4.90;;;;;;;;;;5002420;28;20054;-67
2023/06/08 10:37:37;;;;;;;8.70;6.03;;;;;;;;;;4996273;28;20133;-68
2023/06/08 10:40:10;;;;;;;5.88;5.28;;;;;;;;;;5019287;28;20029;-67
2023/06/08 10:42:36;;;;;;;5.70;5.10;;;;;;;;;;5009650;28;20038;-68
2023/06/08 10:45:03;;;;;;;7.20;5.10;;;;;;;;;;4996925;28;20096;-68
2023/06/08 10:47:31;;;;;;;7.32;4.93;;;;;;;;;;4987164;28;20518;-66
2023/06/08 10:50:02;;;;;;;5.60;5.00;;;;;;;;;;4994995;28;20033;-68
2023/06/08 10:52:29;;;;;;;7.13;5.57;;;;;;;;;;4980844;28;20434;-68
2023/06/08 10:54:57;;;;;;;5.47;4.93;;;;;;;;;;4996224;28;20477;-68
2023/06/08 10:57:45;;;;;;;5.70;4.40;;;;;;;;;;4996746;28;20030;-68
2023/06/08 11:00:27;;;;;;;5.88;4.40;;;;;;;;;;4991020;28;20042;-68
2023/06/08 11:02:53;;;;;;;4.97;4.43;;;;;;;;;;5011092;28;20034;-69
2023/06/08 11:05:20;;;;;;;4.50;3.97;;;;;;;;;;5016704;28;20099;-68
2023/06/08 11:07:45;;;;;;;5.65;4.20;;;;;;;;;;5001632;28;20041;-68
2023/06/08 11:10:11;;;;;;;5.00;4.28;;;;;;;;;;4995273;28;20041;-68
2023/06/08 11:12:36;;;;;;;4.63;3.80;;;;;;;;;;4998091;28;20050;-68
2023/06/08 11:15:02;;;;;;;4.93;3.78;;;;;;;;;;5021665;28;20037;-68
2023/06/08 11:17:28;;;;;;;6.45;4.30;;;;;;;;;;5015768;28;20041;-68
2023/06/08 11:19:53;;;;;;;5.93;4.05;;;;;;;;;;5003919;28;20044;-68
2023/06/08 11:22:22;;;;;;;8.60;5.10;;;;;;;;;;5009484;28;20049;-68
2023/06/08 11:24:47;;;;;;;5.97;3.97;;;;;;;;;;5005014;28;20037;-68
2023/06/08 11:27:19;;;;;;;5.28;4.35;;;;;;;;;;5011947;28;20522;-68
2023/06/08 11:29:46;;;;;;;5.55;4.55;;;;;;;;;;4996008;28;20458;-68
2023/06/08 11:32:17;;;;;;;6.60;4.78;;;;;;;;;;4995294;28;20534;-68
2023/06/08 11:34:45;;;;;;;6.60;4.25;;;;;;;;;;4993421;28;20037;-68
2023/06/08 11:37:14;;;;;;;7.38;4.80;;;;;;;;;;4969945;28;20037;-68
2023/06/08 11:39:47;;;;;;;5.40;4.50;;;;;;;;;;4994935;28;20450;-68
2023/06/08 11:42:12;;;;;;;5.43;4.38;;;;;;;;;;4995519;28;20030;-68
2023/06/08 11:44:38;;;;;;;7.03;4.65;;;;;;;;;;4994915;28;20034;-68
2023/06/08 11:47:05;;;;;;;5.30;4.70;;;;;;;;;;5006486;28;20034;-68
2023/06/08 11:49:50;;;;;;;6.35;3.95;;;;;;;;;;4998649;28;20112;-68
2023/06/08 11:52:15;;;;;;;6.47;4.55;;;;;;;;;;4988038;28;20054;-68
2023/06/08 11:54:41;;;;;;;4.20;3.80;;;;;;;;;;4990867;28;20048;-68
2023/06/08 11:57:06;;;;;;;5.10;4.22;;;;;;;;;;4995094;28;20061;-68
2023/06/08 11:59:35;;;;;;;10.50;4.43;;;;;;;;;;4995621;28;20038;-68
2023/06/08 12:02:01;;;;;;;4.75;4.25;;;;;;;;;;4995491;28;20069;-68
2023/06/08 12:04:34;;;;;;;5.45;3.90;;;;;;;;;;4985005;28;20057;-68
2023/06/08 12:07:13;;;;;;;5.63;3.83;;;;;;;;;;4994266;28;20045;-68
2023/06/08 12:09:39;;;;;;;6.00;3.88;;;;;;;;;;4995298;28;20073;-68
2023/06/08 12:12:09;;;;;;;4.75;3.33;;;;;;;;;;4991498;28;20034;-68
2023/06/08 12:14:47;;;;;;;4.80;3.30;;;;;;;;;;4992857;28;20060;-68
2023/06/08 12:17:16;;;;;;;5.32;3.40;;;;;;;;;;5005531;28;20612;-68
2023/06/08 12:19:45;;;;;;;3.95;3.40;;;;;;;;;;5026757;28;20650;-68
2023/06/08 12:22:14;;;;;;;5.03;3.70;;;;;;;;;;5005127;28;20457;-68
2023/06/08 12:24:40;;;;;;;5.47;3.80;;;;;;;;;;4994249;28;20128;-68
2023/06/08 12:27:09;;;;;;;4.93;4.00;;;;;;;;;;4995092;28;20546;-68
2023/06/08 12:29:36;;;;;;;4.60;3.72;;;;;;;;;;4984842;28;20085;-68
2023/06/08 12:32:02;;;;;;;6.93;3.60;;;;;;;;;;4994679;28;20038;-68
2023/06/08 12:34:28;;;;;;;6.50;3.72;;;;;;;;;;4978204;28;20037;-68
2023/06/08 12:36:54;;;;;;;3.63;3.30;;;;;;;;;;4988347;28;20042;-68
2023/06/08 12:39:19;;;;;;;5.47;3.72;;;;;;;;;;4992465;28;20096;-68
2023/06/08 12:41:45;;;;;;;5.18;3.47;;;;;;;;;;4986605;28;20491;-69
2023/06/08 12:44:11;;;;;;;4.55;3.40;;;;;;;;;;5009430;28;20034;-68
2023/06/08 12:46:36;;;;;;;5.35;3.72;;;;;;;;;;5007530;28;20049;-68
2023/06/08 12:49:02;;;;;;;6.35;3.72;;;;;;;;;;4992057;28;20059;-68
2023/06/08 12:51:27;;;;;;;5.85;3.20;;;;;;;;;;4995954;28;20037;-68
2023/06/08 12:53:53;;;;;;;5.60;3.58;;;;;;;;;;5011741;28;20120;-69
2023/06/08 12:56:18;;;;;;;4.90;2.97;;;;;;;;;;4986225;28;20131;-68
2023/06/08 12:58:44;;;;;;;5.90;3.78;;;;;;;;;;4993979;28;20046;-68
2023/06/08 13:01:09;;;;;;;4.28;3.03;;;;;;;;;;4991981;28;20038;-68
2023/06/08 13:03:35;;;;;;;5.43;3.15;;;;;;;;;;4992344;28;20396;-68
2023/06/08 13:06:01;;;;;;;5.95;3.22;;;;;;;;;;4992677;28;20088;-68
2023/06/08 13:08:26;;;;;;;5.63;3.65;;;;;;;;;;4993353;28;20026;-68
2023/06/08 13:10:52;;;;;;;5.50;3.13;;;;;;;;;;4982858;28;20125;-68
2023/06/08 13:13:18;;;;;;;4.88;3.17;;;;;;;;;;4999470;28;20044;-68
2023/06/08 13:15:45;;;;;;;5.90;3.67;;;;;;;;;;5023940;28;20084;-69
2023/06/08 13:18:11;;;;;;;6.50;3.38;;;;;;;;;;5012116;28;20068;-70
2023/06/08 13:20:37;;;;;;;4.65;3.58;;;;;;;;;;4999288;28;20065;-70
2023/06/08 13:23:03;;;;;;;5.82;3.47;;;;;;;;;;4992918;28;20621;-68
2023/06/08 13:25:28;;;;;;;4.70;3.17;;;;;;;;;;4983970;28;20129;-68
2023/06/08 13:27:54;;;;;;;3.80;3.15;;;;;;;;;;4993148;28;20120;-68
2023/06/08 13:30:21;;;;;;;4.97;3.53;;;;;;;;;;4992780;28;20042;-68
2023/06/08 13:32:46;;;;;;;4.72;3.55;;;;;;;;;;4993069;28;20046;-68
2023/06/08 13:35:12;;;;;;;3.97;3.08;;;;;;;;;;5008159;28;20045;-68
2023/06/08 13:37:37;;;;;;;5.13;3.90;;;;;;;;;;5016594;28;20041;-69
2023/06/08 13:40:04;;;;;;;4.72;3.97;;;;;;;;;;5005673;28;20181;-69
2023/06/08 13:42:31;;;;;;;5.45;3.30;;;;;;;;;;5010534;28;20125;-69
2023/06/08 13:44:56;;;;;;;5.07;3.72;;;;;;;;;;4996233;28;20053;-69
2023/06/08 13:47:22;;;;;;;4.57;3.88;;;;;;;;;;4994758;28;20042;-68
2023/06/08 13:49:47;;;;;;;4.43;3.72;;;;;;;;;;4995080;28;20422;-69
2023/06/08 13:52:13;;;;;;;6.30;4.00;;;;;;;;;;4985641;28;20041;-69
2023/06/08 13:54:38;;;;;;;4.38;3.92;;;;;;;;;;4998843;28;20165;-67
2023/06/08 13:57:04;;;;;;;5.72;3.30;;;;;;;;;;5015703;28;20033;-70
2023/06/08 13:59:30;;;;;;;4.72;3.60;;;;;;;;;;5015025;28;20530;-69
2023/06/08 14:01:55;;;;;;;6.25;4.05;;;;;;;;;;5015913;28;20041;-71
2023/06/08 14:04:21;;;;;;;4.90;3.80;;;;;;;;;;5015792;28;20029;-70
2023/06/08 14:06:47;;;;;;;5.10;3.85;;;;;;;;;;5003306;28;20044;-67
2023/06/08 14:09:13;;;;;;;4.43;3.78;;;;;;;;;;5005434;28;20632;-69
2023/06/08 14:11:39;;;;;;;5.20;3.67;;;;;;;;;;5003403;28;20053;-69
2023/06/08 14:14:05;;;;;;;4.75;3.45;;;;;;;;;;4995767;28;20155;-69
2023/06/08 14:16:31;;;;;;;4.97;2.97;;;;;;;;;;4997139;28;20128;-70
2023/06/08 14:18:56;;;;;;;5.32;3.70;;;;;;;;;;5004212;28;20041;-69
2023/06/08 14:21:21;;;;;;;5.20;3.40;;;;;;;;;;4999435;28;20057;-70
2023/06/08 14:23:47;;;;;;;5.47;3.20;;;;;;;;;;5010975;28;20080;-69
2023/06/08 14:26:14;;;;;;;5.60;3.33;;;;;;;;;;5015060;28;20045;-67
2023/06/08 14:28:40;;;;;;;4.40;3.63;;;;;;;;;;5013696;28;20045;-67
2023/06/08 14:31:11;;;;;;;4.22;3.30;;;;;;;;;;5010204;28;20037;-68
2023/06/08 14:33:37;;;;;;;3.35;2.72;;;;;;;;;;5015844;28;20038;-68
2023/06/08 14:36:02;;;;;;;5.15;3.22;;;;;;;;;;4987440;28;20045;-68
2023/06/08 14:38:28;;;;;;;4.32;3.13;;;;;;;;;;4995957;28;20045;-69
2023/06/08 14:40:53;;;;;;;3.90;3.20;;;;;;;;;;4979061;28;20049;-69
2023/06/08 14:43:19;;;;;;;5.20;3.40;;;;;;;;;;5006715;28;20049;-67
2023/06/08 14:45:45;;;;;;;4.07;2.83;;;;;;;;;;4981414;28;20191;-68